Time;durP1;ratioP1;P1;durP2;ratioP2;P2;SDS_P1;SDS_P2;PMS_P1;PMS_P2;Temp;Humidity;BMP_temperature;BMP_pressure;BME280_temperature;BME280_humidity;BME280_pressure;Samples;Min_cycle;Max_cycle;Signal;HPM_P1;HPM_P2
2021/12/12 00:00:03;;;;;;;7.18;4.93;;;3.60;78.60;;;;;;5085727;28;20194;-71
2021/12/12 00:02:45;;;;;;;5.53;4.07;;;3.60;78.30;;;;;;5089051;28;20555;-71
2021/12/12 00:05:15;;;;;;;6.05;4.00;;;3.50;78.70;;;;;;5089620;28;20551;-72
2021/12/12 00:07:43;;;;;;;5.63;4.28;;;3.50;78.80;;;;;;5089137;28;20186;-71
2021/12/12 00:10:16;;;;;;;6.90;4.03;;;3.50;79.00;;;;;;5088682;28;20226;-71
2021/12/12 00:12:48;;;;;;;4.18;3.50;;;3.50;78.80;;;;;;5086229;28;20194;-71
2021/12/12 00:15:17;;;;;;;6.05;4.35;;;3.50;78.90;;;;;;5089012;28;20274;-72
2021/12/12 00:17:46;;;;;;;7.07;4.35;;;3.60;79.00;;;;;;5088802;28;20229;-72
2021/12/12 00:20:17;;;;;;;7.32;4.25;;;3.60;79.10;;;;;;5089141;28;20608;-72
2021/12/12 00:22:45;;;;;;;5.93;3.72;;;3.60;79.30;;;;;;5088829;28;20190;-73
2021/12/12 00:25:14;;;;;;;4.95;3.75;;;3.60;79.20;;;;;;5088608;28;20547;-72
2021/12/12 00:27:42;;;;;;;4.22;3.75;;;3.70;79.00;;;;;;5088463;28;20237;-72
2021/12/12 00:30:11;;;;;;;5.03;4.22;;;3.70;79.10;;;;;;5087006;28;20235;-72
2021/12/12 00:32:40;;;;;;;5.57;4.20;;;3.80;79.30;;;;;;5088722;28;20219;-71
2021/12/12 00:35:11;;;;;;;5.40;4.15;;;3.80;78.90;;;;;;5088546;28;20209;-72
2021/12/12 00:37:39;;;;;;;5.53;4.03;;;3.90;78.70;;;;;;5088874;28;20556;-72
2021/12/12 00:40:17;;;;;;;8.30;4.50;;;3.90;78.40;;;;;;5088610;28;20247;-72
2021/12/12 00:42:46;;;;;;;5.63;4.85;;;3.90;78.40;;;;;;5089167;28;20237;-73
2021/12/12 00:45:15;;;;;;;5.30;3.92;;;4.00;78.00;;;;;;5092746;28;20193;-72
2021/12/12 00:47:44;;;;;;;7.80;5.47;;;3.90;78.30;;;;;;5094022;28;20194;-73
2021/12/12 00:50:17;;;;;;;7.10;5.20;;;3.90;78.40;;;;;;5093921;28;20711;-72
2021/12/12 00:52:46;;;;;;;7.78;5.43;;;4.00;78.10;;;;;;5094222;28;20592;-71
2021/12/12 00:55:14;;;;;;;4.70;3.97;;;4.00;78.40;;;;;;5093506;28;20315;-72
2021/12/12 00:57:41;;;;;;;5.60;4.10;;;4.00;78.40;;;;;;5094118;28;20624;-72
2021/12/12 01:00:14;;;;;;;4.70;3.53;;;4.00;78.30;;;;;;5093544;28;20204;-73
2021/12/12 01:02:42;;;;;;;4.40;3.55;;;4.00;78.20;;;;;;5094178;28;20614;-72
2021/12/12 01:05:12;;;;;;;5.00;3.60;;;3.90;78.40;;;;;;5093329;28;20232;-72
2021/12/12 01:07:47;;;;;;;4.65;4.05;;;4.00;78.30;;;;;;5093983;28;20297;-72
2021/12/12 01:10:24;;;;;;;4.85;3.85;;;4.00;78.50;;;;;;5093251;28;20197;-73
2021/12/12 01:12:53;;;;;;;5.63;3.95;;;4.00;78.50;;;;;;5093596;28;20246;-72
2021/12/12 01:15:35;;;;;;;5.40;4.15;;;4.00;78.70;;;;;;5093361;28;20221;-72
2021/12/12 01:18:04;;;;;;;5.15;3.70;;;4.00;78.60;;;;;;5093133;28;20181;-72
2021/12/12 01:20:36;;;;;;;5.35;4.00;;;4.00;78.80;;;;;;5093435;28;20197;-72
2021/12/12 01:23:09;;;;;;;4.20;3.80;;;3.90;79.00;;;;;;5093292;28;20674;-72
2021/12/12 01:25:44;;;;;;;5.28;3.95;;;3.90;79.40;;;;;;5093382;28;20186;-71
2021/12/12 01:28:13;;;;;;;5.82;4.60;;;3.90;79.30;;;;;;5032959;28;20292;-71
2021/12/12 01:30:41;;;;;;;5.57;4.53;;;3.90;79.80;;;;;;5033324;28;20191;-74
2021/12/12 01:33:10;;;;;;;5.25;3.40;;;4.00;80.00;;;;;;5052813;28;20266;-73
2021/12/12 01:35:38;;;;;;;5.97;4.18;;;4.00;80.00;;;;;;5052979;28;20218;-72
2021/12/12 01:40:59;;;;;;;6.43;5.28;;;4.00;79.70;;;;;;5052603;28;20236;-77
2021/12/12 01:43:30;;;;;;;5.85;4.72;;;4.10;79.80;;;;;;5033051;28;20192;-73
2021/12/12 01:46:04;;;;;;;7.43;5.22;;;4.10;79.80;;;;;;5032888;28;20230;-72
2021/12/12 01:48:37;;;;;;;5.50;4.32;;;4.10;79.90;;;;;;5033016;28;20669;-72
2021/12/12 01:51:09;;;;;;;7.60;5.80;;;4.20;79.90;;;;;;5032792;28;20195;-74
2021/12/12 01:53:41;;;;;;;6.20;4.93;;;4.20;80.20;;;;;;5032430;28;20590;-72
2021/12/12 01:56:13;;;;;;;7.88;5.53;;;4.20;80.20;;;;;;5032376;28;20230;-71
2021/12/12 01:58:44;;;;;;;6.55;5.20;;;4.20;80.10;;;;;;5032974;28;20202;-71
2021/12/12 02:01:17;;;;;;;8.35;5.72;;;4.20;79.80;;;;;;5032650;28;20634;-73
2021/12/12 02:03:49;;;;;;;7.43;5.70;;;4.20;79.80;;;;;;5032705;28;20199;-72
2021/12/12 02:06:18;;;;;;;6.82;5.25;;;4.30;80.10;;;;;;5032394;28;20208;-76
2021/12/12 02:08:48;;;;;;;6.93;5.72;;;4.30;79.80;;;;;;5032614;28;20191;-72
2021/12/12 02:11:20;;;;;;;7.65;5.35;;;4.30;80.00;;;;;;5032844;28;20296;-72
2021/12/12 02:13:50;;;;;;;9.32;5.97;;;4.40;80.00;;;;;;5032429;28;20192;-72
2021/12/12 02:16:19;;;;;;;7.72;5.38;;;4.40;79.80;;;;;;5032538;28;20249;-72
2021/12/12 02:18:51;;;;;;;8.23;7.28;;;4.40;79.50;;;;;;5032103;28;20202;-73
2021/12/12 02:21:24;;;;;;;8.82;6.55;;;4.40;79.20;;;;;;5032078;28;20199;-74
2021/12/12 02:35:15;;;;;;;9.82;6.55;;;4.40;79.90;;;;;;5092338;28;20330;-73
2021/12/12 02:37:43;;;;;;;7.97;6.10;;;4.50;79.90;;;;;;5091896;28;20554;-73
2021/12/12 02:40:16;;;;;;;7.80;5.55;;;4.40;79.50;;;;;;5092296;28;20200;-72
2021/12/12 02:42:44;;;;;;;6.63;4.55;;;4.40;79.30;;;;;;5091883;28;20190;-72
2021/12/12 02:45:14;;;;;;;7.05;4.80;;;4.40;79.50;;;;;;5092081;28;20266;-73
2021/12/12 02:47:48;;;;;;;5.53;4.63;;;4.40;79.50;;;;;;5091782;28;20185;-72
2021/12/12 02:50:21;;;;;;;5.78;4.47;;;4.40;79.50;;;;;;5091983;28;20548;-73
2021/12/12 02:52:52;;;;;;;6.03;4.03;;;4.40;79.40;;;;;;5091258;28;20190;-74
2021/12/12 02:55:25;;;;;;;5.45;4.93;;;4.50;79.50;;;;;;5092367;28;20221;-71
2021/12/12 02:57:53;;;;;;;7.10;4.50;;;4.50;79.70;;;;;;5092562;28;20246;-71
2021/12/12 03:00:24;;;;;;;6.90;4.13;;;4.50;79.70;;;;;;5092720;28;20269;-71
2021/12/12 03:02:57;;;;;;;5.32;4.65;;;4.50;79.60;;;;;;5092474;28;20193;-71
2021/12/12 03:05:27;;;;;;;6.25;4.88;;;4.50;79.30;;;;;;5091782;28;20224;-71
2021/12/12 03:07:55;;;;;;;6.28;3.70;;;4.40;79.50;;;;;;5092759;28;20321;-71
2021/12/12 03:10:38;;;;;;;5.72;4.15;;;4.40;79.50;;;;;;5092225;28;20602;-71
2021/12/12 03:13:07;;;;;;;5.53;4.57;;;4.40;79.60;;;;;;5092501;28;20626;-71
2021/12/12 03:15:38;;;;;;;5.47;4.15;;;4.50;79.60;;;;;;5092689;28;20232;-71
2021/12/12 03:18:08;;;;;;;6.10;4.13;;;4.50;79.70;;;;;;5092199;28;20197;-71
2021/12/12 03:20:38;;;;;;;5.97;5.00;;;4.40;79.50;;;;;;5092619;28;20613;-72
2021/12/12 03:23:09;;;;;;;5.78;4.47;;;4.50;79.80;;;;;;5092281;28;20258;-72
2021/12/12 03:25:41;;;;;;;6.35;4.63;;;4.40;79.40;;;;;;5092464;28;20648;-70
2021/12/12 03:28:19;;;;;;;5.70;4.68;;;4.40;79.10;;;;;;5040577;28;20590;-71
2021/12/12 03:30:54;;;;;;;6.00;4.82;;;4.40;79.60;;;;;;5031980;28;20198;-71
2021/12/12 03:33:22;;;;;;;7.40;5.32;;;4.30;80.10;;;;;;5044670;28;20186;-71
2021/12/12 03:35:52;;;;;;;5.40;3.92;;;4.20;80.60;;;;;;5052209;28;20292;-71
2021/12/12 03:38:20;;;;;;;6.65;5.30;;;4.20;80.90;;;;;;5039872;28;20238;-71
2021/12/12 03:40:48;;;;;;;8.85;5.65;;;4.20;80.90;;;;;;5032077;28;20646;-72
2021/12/12 03:43:18;;;;;;;6.55;4.70;;;4.20;81.10;;;;;;5043319;28;20604;-72
2021/12/12 03:45:46;;;;;;;6.63;4.75;;;4.20;81.10;;;;;;5032264;28;20673;-72
2021/12/12 03:48:17;;;;;;;6.70;5.15;;;4.20;81.40;;;;;;5043715;28;20230;-71
2021/12/12 03:50:46;;;;;;;6.10;4.88;;;4.20;81.40;;;;;;5052051;28;20618;-72
2021/12/12 03:53:17;;;;;;;6.93;4.88;;;4.30;81.50;;;;;;5052082;28;20198;-72
2021/12/12 03:55:46;;;;;;;6.78;5.68;;;4.30;81.40;;;;;;5052018;28;20276;-72
2021/12/12 03:58:15;;;;;;;9.07;5.50;;;4.30;81.30;;;;;;5051727;28;20622;-72
2021/12/12 04:00:48;;;;;;;6.53;5.13;;;4.40;81.20;;;;;;5037435;28;20219;-71
2021/12/12 04:03:17;;;;;;;7.10;5.78;;;4.30;81.00;;;;;;5032053;28;20195;-72
2021/12/12 04:05:47;;;;;;;6.70;5.75;;;4.40;81.10;;;;;;5032276;28;20265;-71
2021/12/12 04:08:15;;;;;;;6.68;4.70;;;4.40;81.10;;;;;;5032042;28;20202;-72
2021/12/12 04:10:43;;;;;;;6.25;5.13;;;4.40;81.20;;;;;;5031969;28;20191;-72
2021/12/12 04:13:11;;;;;;;11.15;7.65;;;4.30;80.90;;;;;;5032002;28;20195;-72
2021/12/12 04:15:40;;;;;;;13.13;8.48;;;4.30;81.30;;;;;;5031932;28;20315;-72
2021/12/12 04:18:07;;;;;;;9.27;6.50;;;4.30;81.10;;;;;;5035712;28;20394;-72
2021/12/12 04:20:37;;;;;;;9.52;6.00;;;4.30;81.10;;;;;;5036263;28;20207;-71
2021/12/12 04:23:14;;;;;;;6.82;6.13;;;4.30;81.30;;;;;;5035991;28;20593;-71
2021/12/12 04:25:41;;;;;;;8.50;6.35;;;4.20;81.20;;;;;;5036252;28;20203;-71
2021/12/12 04:28:08;;;;;;;11.50;8.80;;;4.20;81.40;;;;;;5075775;28;20243;-72
2021/12/12 04:30:36;;;;;;;9.65;7.82;;;4.30;81.20;;;;;;5086265;28;20217;-72
2021/12/12 04:33:04;;;;;;;12.50;7.50;;;4.20;81.10;;;;;;5095828;28;20223;-71
2021/12/12 04:35:32;;;;;;;11.07;8.38;;;4.20;81.50;;;;;;5095837;28;20253;-71
2021/12/12 04:38:02;;;;;;;8.93;6.15;;;4.20;81.80;;;;;;5095308;28;20186;-71
2021/12/12 04:40:33;;;;;;;9.70;6.95;;;4.20;81.50;;;;;;5095615;28;20185;-71
2021/12/12 04:43:01;;;;;;;11.77;7.30;;;4.10;82.50;;;;;;5095373;28;20231;-71
2021/12/12 04:45:49;;;;;;;9.32;6.07;;;4.10;82.20;;;;;;5095935;28;20197;-71
2021/12/12 04:51:15;;;;;;;8.25;6.10;;;4.20;82.20;;;;;;5095925;28;20184;-70
2021/12/12 04:53:47;;;;;;;8.18;6.60;;;4.20;82.10;;;;;;5094543;28;20217;-72
2021/12/12 04:56:23;;;;;;;9.60;6.57;;;4.30;82.20;;;;;;5094930;28;20349;-73
2021/12/12 04:59:00;;;;;;;11.60;8.32;;;4.30;82.20;;;;;;5094882;28;20185;-71
2021/12/12 05:01:34;;;;;;;10.15;7.75;;;4.30;81.90;;;;;;5095306;28;20196;-71
2021/12/12 05:04:08;;;;;;;7.80;7.00;;;4.30;81.90;;;;;;5095047;28;20238;-72
2021/12/12 05:06:41;;;;;;;9.13;8.02;;;4.20;82.70;;;;;;5095601;28;20583;-71
2021/12/12 05:09:13;;;;;;;11.15;8.77;;;4.30;82.20;;;;;;5094757;28;20236;-70
2021/12/12 05:11:45;;;;;;;9.60;7.72;;;4.30;81.90;;;;;;5095366;28;20663;-72
2021/12/12 05:14:21;;;;;;;10.43;7.55;;;4.20;82.00;;;;;;5094736;28;20239;-71
2021/12/12 05:16:53;;;;;;;7.65;5.40;;;4.20;82.60;;;;;;5094877;28;20216;-76
2021/12/12 05:19:27;;;;;;;7.50;6.45;;;4.30;81.80;;;;;;5095493;28;20197;-72
2021/12/12 05:21:59;;;;;;;10.88;6.95;;;4.30;82.40;;;;;;5094437;28;20189;-72
2021/12/12 05:24:28;;;;;;;7.80;6.10;;;4.20;82.60;;;;;;5095582;28;20239;-72
2021/12/12 05:26:58;;;;;;;7.00;5.82;;;4.20;82.30;;;;;;5094392;28;20264;-72
2021/12/12 05:29:29;;;;;;;8.63;6.65;;;4.20;82.50;;;;;;5093988;28;20220;-71
2021/12/12 05:32:00;;;;;;;9.32;5.50;;;4.20;82.90;;;;;;5094308;28;20187;-72
2021/12/12 05:34:33;;;;;;;9.77;5.82;;;4.20;82.90;;;;;;5094876;28;20596;-72
2021/12/12 05:37:02;;;;;;;8.38;6.40;;;4.20;82.90;;;;;;5094586;28;20221;-72
2021/12/12 05:39:35;;;;;;;8.63;6.72;;;4.20;82.90;;;;;;5094694;28;20201;-72
2021/12/12 05:42:08;;;;;;;8.68;7.22;;;4.20;83.00;;;;;;5094551;28;20189;-71
2021/12/12 05:44:36;;;;;;;10.20;6.25;;;4.10;83.00;;;;;;5094460;28;20596;-71
2021/12/12 05:47:06;;;;;;;9.38;6.35;;;4.20;83.30;;;;;;5093807;28;20193;-72
2021/12/12 05:49:38;;;;;;;9.77;6.68;;;4.20;83.20;;;;;;5094678;28;20263;-71
2021/12/12 05:52:09;;;;;;;14.63;6.82;;;4.20;83.20;;;;;;5094250;28;20280;-73
2021/12/12 05:54:37;;;;;;;7.93;6.68;;;4.20;83.30;;;;;;5094698;28;20216;-71
2021/12/12 05:57:05;;;;;;;9.27;7.07;;;4.20;83.30;;;;;;5094440;28;20228;-71
2021/12/12 05:59:32;;;;;;;13.48;9.10;;;4.20;83.30;;;;;;5094318;28;20193;-71
2021/12/12 06:02:03;;;;;;;10.18;7.90;;;4.20;83.30;;;;;;5094223;28;20290;-71
2021/12/12 06:04:31;;;;;;;14.95;8.60;;;4.10;83.20;;;;;;5093774;28;20258;-71
2021/12/12 06:07:03;;;;;;;11.52;9.00;;;4.10;83.00;;;;;;5094309;28;20205;-71
2021/12/12 06:09:32;;;;;;;12.82;9.55;;;4.10;83.70;;;;;;5093758;28;20659;-71
2021/12/12 06:12:01;;;;;;;12.63;9.68;;;4.00;83.70;;;;;;5094041;28;20611;-71
2021/12/12 06:14:30;;;;;;;11.55;8.93;;;4.10;83.90;;;;;;5093671;28;20235;-71
2021/12/12 06:16:59;;;;;;;11.05;8.32;;;4.00;83.60;;;;;;5093677;28;20243;-71
2021/12/12 06:19:26;;;;;;;13.30;9.20;;;4.10;83.80;;;;;;5093572;28;20213;-71
2021/12/12 06:21:56;;;;;;;10.70;8.85;;;4.10;83.90;;;;;;5093852;28;20190;-71
2021/12/12 06:24:27;;;;;;;12.13;8.98;;;4.10;83.90;;;;;;5093554;28;20235;-72
2021/12/12 06:26:57;;;;;;;17.08;12.88;;;4.10;84.00;;;;;;5093558;28;20225;-71
2021/12/12 06:29:25;;;;;;;12.80;10.05;;;4.20;84.10;;;;;;5093296;28;20269;-72
2021/12/12 06:31:53;;;;;;;13.20;8.68;;;4.20;83.50;;;;;;5093656;28;20189;-71
2021/12/12 06:34:25;;;;;;;12.00;9.30;;;4.20;83.10;;;;;;5092975;28;20651;-71
2021/12/12 06:36:53;;;;;;;13.40;8.98;;;4.20;83.00;;;;;;5093450;28;20271;-71
2021/12/12 06:39:25;;;;;;;12.10;7.80;;;4.20;82.70;;;;;;5093276;28;20196;-71
2021/12/12 06:41:53;;;;;;;10.73;8.07;;;4.20;83.10;;;;;;5093313;28;20563;-71
2021/12/12 06:44:20;;;;;;;14.65;8.90;;;4.20;83.10;;;;;;5093674;28;20583;-71
2021/12/12 06:46:48;;;;;;;14.60;11.68;;;4.10;83.10;;;;;;5092928;28;20194;-71
2021/12/12 06:49:17;;;;;;;20.13;12.93;;;4.10;83.20;;;;;;5093556;28;20201;-71
2021/12/12 06:51:49;;;;;;;15.82;9.55;;;4.10;83.70;;;;;;5093077;28;20204;-71
2021/12/12 06:54:18;;;;;;;11.43;8.20;;;4.10;83.60;;;;;;5093160;28;20215;-77
2021/12/12 06:56:51;;;;;;;9.02;7.78;;;4.00;83.40;;;;;;5092726;28;20244;-71
2021/12/12 06:59:18;;;;;;;11.05;7.45;;;4.00;83.30;;;;;;5093325;28;20240;-71
2021/12/12 07:01:46;;;;;;;10.60;8.38;;;3.90;83.90;;;;;;5092560;28;20548;-71
2021/12/12 07:04:18;;;;;;;11.82;7.82;;;3.90;84.10;;;;;;5093268;28;20196;-71
2021/12/12 07:06:54;;;;;;;9.65;7.60;;;3.90;83.90;;;;;;5092932;28;20194;-72
2021/12/12 07:09:22;;;;;;;9.45;7.40;;;3.90;83.80;;;;;;5093174;28;20228;-71
2021/12/12 07:11:51;;;;;;;11.00;7.47;;;4.00;83.10;;;;;;5092405;28;20186;-72
2021/12/12 07:14:19;;;;;;;7.00;5.40;;;4.00;83.10;;;;;;5092923;28;20228;-71
2021/12/12 07:16:46;;;;;;;9.15;6.80;;;3.90;82.80;;;;;;5092488;28;20604;-70
2021/12/12 07:19:17;;;;;;;9.40;6.40;;;3.90;83.30;;;;;;5092893;28;20208;-70
2021/12/12 07:21:45;;;;;;;7.43;6.00;;;4.10;81.90;;;;;;5092423;28;20667;-71
2021/12/12 07:24:12;;;;;;;8.45;7.40;;;4.00;81.60;;;;;;5092408;28;20189;-71
2021/12/12 07:26:40;;;;;;;9.90;6.90;;;3.90;82.30;;;;;;5092053;28;20611;-72
2021/12/12 07:29:09;;;;;;;5.38;4.07;;;3.90;82.40;;;;;;5092744;28;20197;-71
2021/12/12 07:31:39;;;;;;;6.85;4.60;;;3.90;81.70;;;;;;5092494;28;20582;-71
2021/12/12 07:34:11;;;;;;;5.22;4.57;;;3.90;81.20;;;;;;5092669;28;20276;-70
2021/12/12 07:36:42;;;;;;;6.10;4.60;;;3.90;81.80;;;;;;5092241;28;20291;-71
2021/12/12 07:39:11;;;;;;;6.43;5.50;;;4.20;82.70;;;;;;5092766;28;20194;-73
2021/12/12 07:41:41;;;;;;;9.05;6.45;;;4.50;82.70;;;;;;5092347;28;20185;-71
2021/12/12 07:44:12;;;;;;;7.00;5.18;;;4.80;82.30;;;;;;5092445;28;20631;-71
2021/12/12 07:46:40;;;;;;;8.35;5.70;;;5.10;80.70;;;;;;5091797;28;20200;-72
2021/12/12 07:49:08;;;;;;;8.90;5.97;;;5.40;79.60;;;;;;5092699;28;20279;-70
2021/12/12 07:51:38;;;;;;;6.53;4.90;;;5.70;77.70;;;;;;5091777;28;20234;-71
2021/12/12 07:54:08;;;;;;;6.75;4.75;;;5.70;75.10;;;;;;5092733;28;20186;-71
2021/12/12 07:56:40;;;;;;;5.85;4.65;;;5.80;75.20;;;;;;5092058;28;20215;-71
2021/12/12 07:59:10;;;;;;;7.00;5.40;;;6.00;74.10;;;;;;5092426;28;20232;-71
2021/12/12 08:01:41;;;;;;;6.50;5.05;;;6.00;74.10;;;;;;5091847;28;20224;-71
2021/12/12 08:04:09;;;;;;;7.95;5.18;;;6.10;72.80;;;;;;5092407;28;20193;-71
2021/12/12 08:06:38;;;;;;;6.63;5.45;;;6.10;71.50;;;;;;5091400;28;20250;-72
2021/12/12 08:09:07;;;;;;;6.88;6.00;;;6.00;70.40;;;;;;5091939;28;20192;-71
2021/12/12 08:11:35;;;;;;;7.25;5.28;;;6.00;71.00;;;;;;5092038;28;20255;-71
2021/12/12 08:14:05;;;;;;;7.95;5.88;;;6.00;70.70;;;;;;5092282;28;20280;-71
2021/12/12 08:16:34;;;;;;;6.50;4.20;;;5.90;69.60;;;;;;5086665;28;20225;-70
2021/12/12 08:19:02;;;;;;;8.30;5.82;;;5.90;69.50;;;;;;5090674;28;20194;-71
2021/12/12 08:21:38;;;;;;;12.18;7.60;;;5.80;69.50;;;;;;5090111;28;20204;-72
2021/12/12 08:24:09;;;;;;;14.75;12.10;;;5.80;69.00;;;;;;5090680;28;20556;-72
2021/12/12 08:26:45;;;;;;;7.97;6.43;;;5.60;69.70;;;;;;5090188;28;20350;-71
2021/12/12 08:29:15;;;;;;;9.75;7.10;;;5.50;70.00;;;;;;5090369;28;20185;-72
2021/12/12 08:31:46;;;;;;;10.15;6.10;;;5.40;70.80;;;;;;5090143;28;20221;-71
2021/12/12 08:34:15;;;;;;;13.45;6.28;;;5.30;71.40;;;;;;5090332;28;20276;-73
2021/12/12 08:36:47;;;;;;;10.27;8.45;;;5.40;71.80;;;;;;5090343;28;20249;-71
2021/12/12 08:39:18;;;;;;;9.52;6.97;;;5.40;71.30;;;;;;5090528;28;20193;-72
2021/12/12 08:41:49;;;;;;;8.32;6.20;;;5.40;71.50;;;;;;5090088;28;20198;-71
2021/12/12 08:44:19;;;;;;;7.63;5.82;;;5.80;71.00;;;;;;5089981;28;20630;-71
2021/12/12 08:46:51;;;;;;;11.00;7.25;;;6.20;69.90;;;;;;5090574;28;20648;-72
2021/12/12 08:49:21;;;;;;;9.40;6.30;;;6.60;69.50;;;;;;5089876;28;20272;-72
2021/12/12 08:51:52;;;;;;;8.60;6.85;;;6.90;67.50;;;;;;5090323;28;20277;-72
2021/12/12 08:54:26;;;;;;;14.60;9.15;;;7.10;64.50;;;;;;5089940;28;20705;-74
2021/12/12 08:57:03;;;;;;;19.85;13.18;;;7.20;64.50;;;;;;5087480;28;20274;-72
2021/12/12 08:59:37;;;;;;;13.85;9.18;;;7.40;64.90;;;;;;5089336;28;20192;-73
2021/12/12 09:02:14;;;;;;;13.18;9.98;;;7.70;62.90;;;;;;5087057;28;20189;-72
2021/12/12 09:04:48;;;;;;;17.42;10.57;;;7.80;62.20;;;;;;5092266;28;20272;-72
2021/12/12 09:07:21;;;;;;;10.93;8.50;;;8.00;61.10;;;;;;5093815;28;20280;-72
2021/12/12 09:09:59;;;;;;;8.05;6.30;;;8.30;61.70;;;;;;5093117;28;20178;-72
2021/12/12 09:12:31;;;;;;;7.55;5.97;;;8.60;59.30;;;;;;5090779;28;20190;-72
2021/12/12 09:15:11;;;;;;;10.60;7.22;;;8.90;58.40;;;;;;5092935;28;20238;-72
2021/12/12 09:17:46;;;;;;;12.90;8.07;;;9.10;57.60;;;;;;5091384;28;20217;-71
2021/12/12 09:20:19;;;;;;;11.57;7.78;;;9.30;57.10;;;;;;5093504;28;20242;-72
2021/12/12 09:22:56;;;;;;;10.38;7.18;;;9.50;58.70;;;;;;5090415;28;20196;-74
2021/12/12 09:25:34;;;;;;;13.35;9.07;;;9.90;58.00;;;;;;5093606;28;20359;-73
2021/12/12 09:28:06;;;;;;;11.32;7.57;;;10.30;55.80;;;;;;5090464;28;20679;-73
2021/12/12 09:30:33;;;;;;;11.20;7.13;;;10.50;53.30;;;;;;5093147;28;20186;-72
2021/12/12 09:33:19;;;;;;;9.30;5.80;;;10.50;53.20;;;;;;5093344;28;20647;-74
2021/12/12 09:35:51;;;;;;;6.50;4.30;;;10.60;52.40;;;;;;5093228;28;20243;-73
2021/12/12 09:38:25;;;;;;;7.32;4.85;;;10.80;50.40;;;;;;5089958;28;20281;-73
2021/12/12 09:41:23;;;;;;;4.63;3.72;;;11.00;49.00;;;;;;5093256;28;20272;-73
2021/12/12 09:44:30;;;;;;;4.20;3.25;;;11.10;48.90;;;;;;5093032;28;20275;-74
2021/12/12 09:47:27;;;;;;;4.15;3.13;;;11.50;47.60;;;;;;5089885;28;20221;-73
2021/12/12 09:53:30;;;;;;;3.92;2.90;;;11.80;44.80;;;;;;5092895;28;20184;-73
2021/12/12 09:56:06;;;;;;;4.63;2.35;;;12.10;44.30;;;;;;5092306;28;20190;-73
2021/12/12 09:58:44;;;;;;;3.78;2.80;;;12.30;43.80;;;;;;5089949;28;20280;-73
2021/12/12 10:01:18;;;;;;;5.80;3.65;;;12.50;43.70;;;;;;5092856;28;20201;-73
2021/12/12 10:04:10;;;;;;;4.88;2.75;;;12.60;42.30;;;;;;5092083;28;20813;-71
2021/12/12 10:06:56;;;;;;;5.03;3.28;;;12.70;41.90;;;;;;5089920;28;20208;-74
2021/12/12 10:09:26;;;;;;;3.08;1.85;;;12.60;41.50;;;;;;5091730;28;20201;-73
2021/12/12 10:12:01;;;;;;;2.90;1.75;;;12.80;39.90;;;;;;5092374;28;20217;-73
2021/12/12 10:14:34;;;;;;;3.13;1.75;;;12.80;39.60;;;;;;5091887;28;20602;-74
2021/12/12 10:17:10;;;;;;;2.92;1.40;;;13.00;39.10;;;;;;5091973;28;20213;-74
2021/12/12 10:19:45;;;;;;;3.63;2.00;;;12.90;39.60;;;;;;5092246;28;20189;-72
2021/12/12 10:22:48;;;;;;;2.97;1.98;;;12.90;39.50;;;;;;5073468;28;20190;-74
2021/12/12 10:25:23;;;;;;;3.10;2.53;;;13.00;39.20;;;;;;5077411;28;20327;-72
2021/12/12 10:28:00;;;;;;;3.40;2.30;;;13.10;38.70;;;;;;5086938;28;20213;-77
2021/12/12 10:30:40;;;;;;;5.70;3.87;;;13.30;39.00;;;;;;5091117;28;20431;-72
2021/12/12 10:33:13;;;;;;;3.70;2.47;;;13.60;38.60;;;;;;5091009;28;21838;-73
2021/12/12 10:35:47;;;;;;;4.40;2.53;;;13.70;37.80;;;;;;5090980;28;20450;-74
2021/12/12 10:38:21;;;;;;;3.87;2.50;;;13.90;37.60;;;;;;5089377;28;20551;-73
2021/12/12 10:40:51;;;;;;;4.75;2.40;;;13.70;35.40;;;;;;5092014;28;20435;-72
2021/12/12 10:43:27;;;;;;;4.83;2.73;;;13.50;36.70;;;;;;5090244;28;20229;-72
2021/12/12 10:46:02;;;;;;;5.30;3.33;;;13.70;37.10;;;;;;5091019;28;20445;-72
2021/12/12 10:48:35;;;;;;;5.00;3.77;;;14.00;37.60;;;;;;5091700;28;20439;-72
2021/12/12 10:51:10;;;;;;;4.20;3.00;;;14.30;35.40;;;;;;5091512;28;20435;-72
2021/12/12 10:53:45;;;;;;;4.73;3.13;;;14.50;36.40;;;;;;5091819;28;21306;-72
2021/12/12 10:56:20;;;;;;;3.43;2.60;;;14.70;35.20;;;;;;5091645;28;20802;-73
2021/12/12 10:58:52;;;;;;;3.10;2.17;;;14.80;36.30;;;;;;5091441;28;20442;-73
2021/12/12 11:01:27;;;;;;;2.73;1.37;;;15.10;34.50;;;;;;5092014;28;20907;-72
2021/12/12 11:04:02;;;;;;;2.83;1.60;;;15.10;32.80;;;;;;5091417;28;20929;-72
2021/12/12 11:06:33;;;;;;;2.53;1.57;;;15.00;33.60;;;;;;5092292;28;20485;-72
2021/12/12 11:09:06;;;;;;;3.23;2.23;;;15.00;32.10;;;;;;5091775;28;20442;-73
2021/12/12 11:11:40;;;;;;;2.70;2.03;;;14.90;33.50;;;;;;5092178;28;20467;-72
2021/12/12 11:14:17;;;;;;;4.60;1.70;;;14.90;33.20;;;;;;5086096;28;20439;-72
2021/12/12 11:16:49;;;;;;;3.93;2.40;;;15.10;32.30;;;;;;5086983;28;20560;-73
2021/12/12 11:19:21;;;;;;;2.97;1.87;;;15.30;32.80;;;;;;5091158;28;20536;-73
2021/12/12 11:21:52;;;;;;;2.60;1.47;;;15.30;32.00;;;;;;5091112;28;20519;-73
2021/12/12 11:24:25;;;;;;;3.27;2.10;;;15.00;32.20;;;;;;5091359;28;20610;-72
2021/12/12 11:26:58;;;;;;;2.80;1.73;;;14.60;32.80;;;;;;5090662;28;20873;-72
2021/12/12 11:29:28;;;;;;;2.70;1.43;;;14.80;32.50;;;;;;5088078;28;20451;-72
2021/12/12 11:31:59;;;;;;;2.37;1.27;;;14.90;32.40;;;;;;5091293;28;20528;-72
2021/12/12 11:34:27;;;;;;;3.50;1.70;;;14.80;32.20;;;;;;5090938;28;20440;-73
2021/12/12 11:37:08;;;;;;;4.00;1.57;;;14.90;32.70;;;;;;5091114;28;20471;-71
2021/12/12 11:39:45;;;;;;;2.67;1.70;;;15.10;33.00;;;;;;5091168;28;20930;-72
2021/12/12 11:42:23;;;;;;;3.07;1.90;;;15.50;31.80;;;;;;5088360;28;20470;-72
2021/12/12 11:45:00;;;;;;;2.60;1.53;;;15.20;31.60;;;;;;5090372;28;20443;-72
2021/12/12 11:48:01;;;;;;;3.23;2.13;;;14.70;32.30;;;;;;5091037;28;20496;-71
2021/12/12 11:50:41;;;;;;;2.90;1.93;;;14.20;33.40;;;;;;5089659;28;20514;-72
2021/12/12 11:53:15;;;;;;;4.47;2.70;;;13.70;34.20;;;;;;5088476;28;20555;-72
2021/12/12 11:55:48;;;;;;;3.50;2.20;;;13.50;36.10;;;;;;5090797;28;20488;-71
2021/12/12 11:58:30;;;;;;;3.90;3.00;;;13.40;35.80;;;;;;5083958;28;20558;-72
2021/12/12 12:01:18;;;;;;;4.83;3.43;;;13.10;35.30;;;;;;5088652;28;21044;-71
2021/12/12 12:04:21;;;;;;;2.83;2.17;;;12.80;35.60;;;;;;5088462;28;20443;-72
2021/12/12 12:07:02;;;;;;;2.70;1.70;;;12.60;36.40;;;;;;5067118;28;20925;-72
2021/12/12 12:09:50;;;;;;;2.40;1.80;;;12.30;36.50;;;;;;5089044;28;20518;-72
2021/12/12 12:12:43;;;;;;;3.30;2.47;;;12.10;37.30;;;;;;5089541;28;20447;-72
2021/12/12 12:15:20;;;;;;;4.22;2.05;;;11.70;37.70;;;;;;5087692;28;20443;-71
2021/12/12 12:18:02;;;;;;;3.28;2.35;;;11.40;38.60;;;;;;5089099;28;20618;-71
2021/12/12 12:20:41;;;;;;;4.75;3.00;;;11.40;39.10;;;;;;5088563;28;20198;-72
2021/12/12 12:23:32;;;;;;;3.35;2.63;;;11.20;39.40;;;;;;5085531;28;20204;-72
2021/12/12 12:29:09;;;;;;;5.68;3.58;;;10.90;40.20;;;;;;5088523;28;20205;-72
2021/12/12 12:32:11;;;;;;;6.80;3.40;;;10.70;40.20;;;;;;5087938;28;20280;-72
2021/12/12 12:35:18;;;;;;;4.00;2.25;;;10.30;40.90;;;;;;5067867;28;20283;-72
2021/12/12 12:38:49;;;;;;;3.40;2.55;;;10.20;41.70;;;;;;5076814;28;20632;-73
2021/12/12 12:41:49;;;;;;;3.33;2.13;;;10.10;42.10;;;;;;5091849;28;20193;-72
2021/12/12 12:44:58;;;;;;;3.15;2.53;;;9.80;43.60;;;;;;5092058;28;20193;-71
2021/12/12 12:48:03;;;;;;;3.25;2.22;;;9.70;44.40;;;;;;5047799;28;20294;-72
2021/12/12 12:50:51;;;;;;;3.92;2.40;;;9.60;44.50;;;;;;5057464;28;20201;-72
2021/12/12 12:53:33;;;;;;;4.25;3.15;;;9.60;44.80;;;;;;5092382;28;20282;-71
2021/12/12 12:56:39;;;;;;;3.00;2.08;;;9.60;44.50;;;;;;5093189;28;20201;-71
2021/12/12 12:59:30;;;;;;;4.25;2.10;;;9.50;44.50;;;;;;5078719;28;20217;-71
2021/12/12 13:02:15;;;;;;;3.17;2.05;;;9.40;44.80;;;;;;5092609;28;20196;-71
2021/12/12 13:05:02;;;;;;;4.03;2.00;;;9.40;45.10;;;;;;5093283;28;20276;-71
2021/12/12 13:08:11;;;;;;;3.30;2.17;;;9.30;45.00;;;;;;5092080;28;20205;-73
2021/12/12 13:10:41;;;;;;;3.60;2.55;;;9.20;45.30;;;;;;5091617;28;20284;-73
2021/12/12 13:13:18;;;;;;;3.97;2.40;;;9.20;45.50;;;;;;5091560;28;20276;-71
2021/12/12 13:16:03;;;;;;;2.60;2.00;;;9.10;46.10;;;;;;5091397;28;20189;-71
2021/12/12 13:18:43;;;;;;;3.45;2.33;;;9.10;45.90;;;;;;5090429;28;20311;-71
2021/12/12 13:21:19;;;;;;;4.40;2.50;;;9.10;46.10;;;;;;5089009;28;20196;-73
2021/12/12 13:24:01;;;;;;;4.10;2.80;;;9.10;46.20;;;;;;5090241;28;20283;-71
2021/12/12 13:26:39;;;;;;;3.25;2.35;;;9.10;46.50;;;;;;5090854;28;20229;-72
2021/12/12 13:29:16;;;;;;;3.45;2.72;;;9.10;46.80;;;;;;5090953;28;20208;-72
2021/12/12 13:31:53;;;;;;;5.05;3.10;;;9.20;46.10;;;;;;5091164;28;20258;-73
2021/12/12 13:34:36;;;;;;;6.95;4.55;;;9.20;46.60;;;;;;5089159;28;20282;-74
2021/12/12 13:37:15;;;;;;;8.82;4.88;;;9.30;45.50;;;;;;5090260;28;20197;-75
2021/12/12 13:39:57;;;;;;;8.15;4.82;;;9.10;45.80;;;;;;5090225;28;20208;-71
2021/12/12 13:42:41;;;;;;;12.10;7.60;;;9.00;46.30;;;;;;5091619;28;20636;-73
2021/12/12 13:45:26;;;;;;;10.75;6.10;;;9.00;46.40;;;;;;5087109;28;20532;-72
2021/12/12 13:48:17;;;;;;;12.27;6.93;;;9.00;46.20;;;;;;5086857;28;20193;-72
2021/12/12 13:50:54;;;;;;;9.88;4.65;;;8.90;46.70;;;;;;5084305;28;20212;-71